Terminal Aerodrome Forecast
Issued by NWS Austin/San Antonio, TX

Home | Current Version | Previous Version | Text Only | Print | Product List | Glossary On
Versions: 1 2 3 4 5 6 7 8 9 10 11 12 13 14 15 16 17 18 19 20 21 22
611
FTUS44 KEWX 230533
TAFDRT
TAF
KDRT 230533Z 2306/2406 10012KT P6SM SKC
     FM230900 11012KT P6SM BKN015
     FM231100 12012KT P6SM OVC006
     FM231500 13012G22KT P6SM OVC015
     FM231700 14022G32KT P6SM BKN020=

USA.gov is the U.S. government's official web portal to all federal, state and local government web resources and services.